sensor_id;sensor_type;location;lat;lon;timestamp;pressure;altitude;pressure_sealevel;temperature;humidity
1776;BME280;885;42.626;23.200;2023-02-01T00:01:56;165126.75;;;-0.05;94.57
1776;BME280;885;42.626;23.200;2023-02-01T00:04:23;165098.03;;;-0.16;95.29
1776;BME280;885;42.626;23.200;2023-02-01T00:06:50;165129.47;;;-0.04;94.33
1776;BME280;885;42.626;23.200;2023-02-01T00:09:17;165108.97;;;-0.12;94.19
1776;BME280;885;42.626;23.200;2023-02-01T00:11:43;165066.56;;;-0.27;94.30
1776;BME280;885;42.626;23.200;2023-02-01T00:14:10;165074.81;;;-0.24;93.73
1776;BME280;885;42.626;23.200;2023-02-01T00:16:37;165065.25;;;-0.28;93.66
1776;BME280;885;42.626;23.200;2023-02-01T00:19:09;165099.44;;;-0.15;94.22
1776;BME280;885;42.626;23.200;2023-02-01T00:21:36;165139.06;;;-0.01;92.00
1776;BME280;885;42.626;23.200;2023-02-01T00:24:03;165137.69;;;-0.01;91.77
1776;BME280;885;42.626;23.200;2023-02-01T00:26:32;165117.22;;;-0.09;92.11
1776;BME280;885;42.626;23.200;2023-02-01T00:28:59;165124.00;;;-0.06;91.78
1776;BME280;885;42.626;23.200;2023-02-01T00:31:26;165133.59;;;-0.03;91.82
1776;BME280;885;42.626;23.200;2023-02-01T00:33:53;165147.25;;;0.03;91.86
1776;BME280;885;42.626;23.200;2023-02-01T00:36:21;165160.94;;;0.08;92.87
1776;BME280;885;42.626;23.200;2023-02-01T00:38:48;165154.09;;;0.05;92.83
1776;BME280;885;42.626;23.200;2023-02-01T00:41:17;165009.22;;;-0.48;91.34
1776;BME280;885;42.626;23.200;2023-02-01T00:43:44;165013.28;;;-0.47;91.09
1776;BME280;885;42.626;23.200;2023-02-01T00:46:13;165076.19;;;-0.24;91.83
1776;BME280;885;42.626;23.200;2023-02-01T00:48:40;165033.78;;;-0.39;91.52
1776;BME280;885;42.626;23.200;2023-02-01T00:51:10;165055.63;;;-0.31;91.78
1776;BME280;885;42.626;23.200;2023-02-01T00:53:39;165078.88;;;-0.23;92.14
1776;BME280;885;42.626;23.200;2023-02-01T00:56:06;165089.81;;;-0.19;91.95
1776;BME280;885;42.626;23.200;2023-02-01T00:58:33;165092.56;;;-0.18;90.22
1776;BME280;885;42.626;23.200;2023-02-01T01:01:05;165044.72;;;-0.35;88.39
1776;BME280;885;42.626;23.200;2023-02-01T01:03:33;165005.06;;;-0.50;89.18
1776;BME280;885;42.626;23.200;2023-02-01T01:06:03;165018.75;;;-0.45;90.19
1776;BME280;885;42.626;23.200;2023-02-01T01:08:30;164994.13;;;-0.54;89.76
1776;BME280;885;42.626;23.200;2023-02-01T01:10:58;164980.50;;;-0.59;91.75
1776;BME280;885;42.626;23.200;2023-02-01T01:13:25;164966.81;;;-0.64;89.59
1776;BME280;885;42.626;23.200;2023-02-01T01:15:52;165021.47;;;-0.44;88.64
1776;BME280;885;42.626;23.200;2023-02-01T01:18:19;164998.22;;;-0.52;88.48
1776;BME280;885;42.626;23.200;2023-02-01T01:20:47;164968.19;;;-0.63;89.14
1776;BME280;885;42.626;23.200;2023-02-01T01:23:14;164939.50;;;-0.74;90.56
1776;BME280;885;42.626;23.200;2023-02-01T01:25:41;164950.41;;;-0.70;90.08
1776;BME280;885;42.626;23.200;2023-02-01T01:28:09;164920.34;;;-0.81;90.24
1776;BME280;885;42.626;23.200;2023-02-01T01:30:36;164936.72;;;-0.75;90.23
1776;BME280;885;42.626;23.200;2023-02-01T01:33:03;164910.78;;;-0.85;90.02
1776;BME280;885;42.626;23.200;2023-02-01T01:35:30;164939.50;;;-0.74;88.86
1776;BME280;885;42.626;23.200;2023-02-01T01:37:58;164969.56;;;-0.63;89.03
1776;BME280;885;42.626;23.200;2023-02-01T01:40:25;164992.75;;;-0.54;89.38
1776;BME280;885;42.626;23.200;2023-02-01T01:42:52;165020.13;;;-0.44;89.97
1776;BME280;885;42.626;23.200;2023-02-01T01:45:34;165037.91;;;-0.38;90.33
1776;BME280;885;42.626;23.200;2023-02-01T01:48:05;165020.13;;;-0.44;89.96
1776;BME280;885;42.626;23.200;2023-02-01T01:50:36;165031.06;;;-0.40;90.12
1776;BME280;885;42.626;23.200;2023-02-01T01:53:07;164938.09;;;-0.74;89.06
1776;BME280;885;42.626;23.200;2023-02-01T01:55:38;164946.34;;;-0.71;89.38
1776;BME280;885;42.626;23.200;2023-02-01T01:58:12;164853.41;;;-1.06;91.01
1776;BME280;885;42.626;23.200;2023-02-01T02:00:43;164862.94;;;-1.02;90.40
1776;BME280;885;42.626;23.200;2023-02-01T02:03:14;164852.03;;;-1.06;91.22
1776;BME280;885;42.626;23.200;2023-02-01T02:05:45;164884.81;;;-0.94;91.27
1776;BME280;885;42.626;23.200;2023-02-01T02:08:12;164871.16;;;-0.99;91.24
1776;BME280;885;42.626;23.200;2023-02-01T02:10:39;164879.34;;;-0.96;91.18
1776;BME280;885;42.626;23.200;2023-02-01T02:13:24;164901.25;;;-0.88;90.58
1776;BME280;885;42.626;23.200;2023-02-01T02:19:06;164798.78;;;-1.26;90.54
1776;BME280;885;42.626;23.200;2023-02-01T02:21:51;164812.41;;;-1.21;91.09
1776;BME280;885;42.626;23.200;2023-02-01T02:24:43;164753.66;;;-1.42;91.24
1776;BME280;885;42.626;23.200;2023-02-01T02:27:23;164774.16;;;-1.35;92.04
1776;BME280;885;42.626;23.200;2023-02-01T02:30:26;164808.31;;;-1.22;91.71
1776;BME280;885;42.626;23.200;2023-02-01T02:33:30;164809.69;;;-1.22;90.23
1776;BME280;885;42.626;23.200;2023-02-01T02:36:09;164798.78;;;-1.26;91.15
1776;BME280;885;42.626;23.200;2023-02-01T02:38:44;164832.94;;;-1.13;89.86
1776;BME280;885;42.626;23.200;2023-02-01T02:41:16;164838.38;;;-1.11;91.60
1776;BME280;885;42.626;23.200;2023-02-01T02:43:59;164856.09;;;-1.05;91.04
1776;BME280;885;42.626;23.200;2023-02-01T02:47:03;164850.63;;;-1.07;91.06
1776;BME280;885;42.626;23.200;2023-02-01T02:49:53;164852.03;;;-1.06;91.59
1776;BME280;885;42.626;23.200;2023-02-01T02:52:37;164857.47;;;-1.04;91.20
1776;BME280;885;42.626;23.200;2023-02-01T02:55:24;164815.16;;;-1.20;91.55
1776;BME280;885;42.626;23.200;2023-02-01T02:57:53;164797.41;;;-1.26;92.23
1776;BME280;885;42.626;23.200;2023-02-01T03:00:39;164838.38;;;-1.11;91.38
1776;BME280;885;42.626;23.200;2023-02-01T03:03:23;164834.25;;;-1.13;89.15
1776;BME280;885;42.626;23.200;2023-02-01T03:06:13;164805.56;;;-1.23;90.05
1776;BME280;885;42.626;23.200;2023-02-01T03:08:41;164801.47;;;-1.25;90.00
1776;BME280;885;42.626;23.200;2023-02-01T03:11:13;164850.63;;;-1.07;91.13
1776;BME280;885;42.626;23.200;2023-02-01T03:13:45;164824.72;;;-1.16;89.77
1776;BME280;885;42.626;23.200;2023-02-01T03:16:18;164830.16;;;-1.14;89.46
1776;BME280;885;42.626;23.200;2023-02-01T03:18:55;164823.31;;;-1.17;89.76
1776;BME280;885;42.626;23.200;2023-02-01T03:21:29;164789.19;;;-1.29;90.81
1776;BME280;885;42.626;23.200;2023-02-01T03:24:01;164824.72;;;-1.16;90.72
1776;BME280;885;42.626;23.200;2023-02-01T03:26:30;164865.69;;;-1.01;90.87
1776;BME280;885;42.626;23.200;2023-02-01T03:29:03;164816.50;;;-1.19;90.24
1776;BME280;885;42.626;23.200;2023-02-01T03:31:32;164816.50;;;-1.19;91.14
1776;BME280;885;42.626;23.200;2023-02-01T03:33:59;164843.84;;;-1.09;91.02
1776;BME280;885;42.626;23.200;2023-02-01T03:36:30;164847.94;;;-1.08;90.69
1776;BME280;885;42.626;23.200;2023-02-01T03:39:01;164884.81;;;-0.94;90.68
1776;BME280;885;42.626;23.200;2023-02-01T03:41:35;164901.25;;;-0.88;91.47
1776;BME280;885;42.626;23.200;2023-02-01T03:44:08;164905.31;;;-0.87;91.50
1776;BME280;885;42.626;23.200;2023-02-01T03:46:41;164934.03;;;-0.76;90.80
1776;BME280;885;42.626;23.200;2023-02-01T03:49:12;164916.25;;;-0.83;90.75
1776;BME280;885;42.626;23.200;2023-02-01T03:51:44;164876.63;;;-0.97;90.15
1776;BME280;885;42.626;23.200;2023-02-01T03:54:13;164862.94;;;-1.02;90.71
1776;BME280;885;42.626;23.200;2023-02-01T03:56:44;164903.94;;;-0.87;90.65
1776;BME280;885;42.626;23.200;2023-02-01T03:59:13;164928.56;;;-0.78;90.09
1776;BME280;885;42.626;23.200;2023-02-01T04:01:40;164946.34;;;-0.71;89.90
1776;BME280;885;42.626;23.200;2023-02-01T04:04:07;164865.69;;;-1.01;91.57
1776;BME280;885;42.626;23.200;2023-02-01T04:06:34;164909.41;;;-0.85;90.98
1776;BME280;885;42.626;23.200;2023-02-01T04:09:03;164920.34;;;-0.81;91.66
1776;BME280;885;42.626;23.200;2023-02-01T04:11:29;164942.19;;;-0.73;91.10
1776;BME280;885;42.626;23.200;2023-02-01T04:13:59;164939.50;;;-0.74;91.89
1776;BME280;885;42.626;23.200;2023-02-01T04:16:29;164961.34;;;-0.66;92.07
1776;BME280;885;42.626;23.200;2023-02-01T04:18:56;164968.19;;;-0.63;92.44
1776;BME280;885;42.626;23.200;2023-02-01T04:21:24;164985.97;;;-0.57;92.05
1776;BME280;885;42.626;23.200;2023-02-01T04:23:51;164996.91;;;-0.53;92.66
1776;BME280;885;42.626;23.200;2023-02-01T04:26:19;164961.34;;;-0.66;92.72
1776;BME280;885;42.626;23.200;2023-02-01T04:28:46;164917.63;;;-0.82;92.86
1776;BME280;885;42.626;23.200;2023-02-01T04:31:13;164961.34;;;-0.66;93.68
1776;BME280;885;42.626;23.200;2023-02-01T04:33:40;164994.13;;;-0.54;93.54
1776;BME280;885;42.626;23.200;2023-02-01T04:36:07;164976.38;;;-0.60;92.99
1776;BME280;885;42.626;23.200;2023-02-01T04:38:34;164951.78;;;-0.69;93.45
1776;BME280;885;42.626;23.200;2023-02-01T04:41:01;164923.09;;;-0.80;93.86
1776;BME280;885;42.626;23.200;2023-02-01T04:43:29;164906.69;;;-0.86;94.74
1776;BME280;885;42.626;23.200;2023-02-01T04:45:56;164961.34;;;-0.66;95.40
1776;BME280;885;42.626;23.200;2023-02-01T04:48:22;164968.19;;;-0.63;97.95
1776;BME280;885;42.626;23.200;2023-02-01T04:50:49;164983.19;;;-0.58;95.65
1776;BME280;885;42.626;23.200;2023-02-01T04:53:16;165006.44;;;-0.49;94.78
1776;BME280;885;42.626;23.200;2023-02-01T04:55:43;164977.75;;;-0.60;95.29
1776;BME280;885;42.626;23.200;2023-02-01T04:58:10;165007.81;;;-0.49;94.77
1776;BME280;885;42.626;23.200;2023-02-01T05:00:39;165020.13;;;-0.44;94.68
1776;BME280;885;42.626;23.200;2023-02-01T05:03:05;164994.13;;;-0.54;94.35
1776;BME280;885;42.626;23.200;2023-02-01T05:05:32;165035.16;;;-0.39;93.75
1776;BME280;885;42.626;23.200;2023-02-01T05:07:59;165054.31;;;-0.32;94.05
1776;BME280;885;42.626;23.200;2023-02-01T05:10:26;165059.78;;;-0.30;93.81
1776;BME280;885;42.626;23.200;2023-02-01T05:12:57;165081.66;;;-0.22;95.53
1776;BME280;885;42.626;23.200;2023-02-01T05:15:43;165102.13;;;-0.14;96.20
1776;BME280;885;42.626;23.200;2023-02-01T05:18:11;165026.94;;;-0.42;95.76
1776;BME280;885;42.626;23.200;2023-02-01T05:20:38;165084.34;;;-0.21;95.92
1776;BME280;885;42.626;23.200;2023-02-01T05:23:04;165076.19;;;-0.24;96.18
1776;BME280;885;42.626;23.200;2023-02-01T05:25:31;165032.41;;;-0.40;97.27
1776;BME280;885;42.626;23.200;2023-02-01T05:27:58;164996.91;;;-0.53;98.22
1776;BME280;885;42.626;23.200;2023-02-01T05:30:28;164999.59;;;-0.52;97.77
1776;BME280;885;42.626;23.200;2023-02-01T05:32:56;164979.13;;;-0.59;96.70
1776;BME280;885;42.626;23.200;2023-02-01T05:35:23;165037.91;;;-0.38;96.34
1776;BME280;885;42.626;23.200;2023-02-01T05:37:49;165055.63;;;-0.31;96.53
1776;BME280;885;42.626;23.200;2023-02-01T05:40:16;165016.00;;;-0.46;96.49
1776;BME280;885;42.626;23.200;2023-02-01T05:42:43;165014.66;;;-0.46;95.81
1776;BME280;885;42.626;23.200;2023-02-01T05:45:10;165040.63;;;-0.37;95.89
1776;BME280;885;42.626;23.200;2023-02-01T05:47:37;165005.06;;;-0.50;96.96
1776;BME280;885;42.626;23.200;2023-02-01T05:50:07;165042.00;;;-0.36;97.09
1776;BME280;885;42.626;23.200;2023-02-01T05:52:33;165046.09;;;-0.35;95.69
1776;BME280;885;42.626;23.200;2023-02-01T05:55:00;165000.97;;;-0.51;95.85
1776;BME280;885;42.626;23.200;2023-02-01T05:57:27;165022.84;;;-0.43;96.25
1776;BME280;885;42.626;23.200;2023-02-01T05:59:54;165025.59;;;-0.42;95.78
1776;BME280;885;42.626;23.200;2023-02-01T06:02:20;165067.94;;;-0.27;94.95
1776;BME280;885;42.626;23.200;2023-02-01T06:04:49;165059.78;;;-0.30;95.52
1776;BME280;885;42.626;23.200;2023-02-01T06:07:17;165084.34;;;-0.21;94.48
1776;BME280;885;42.626;23.200;2023-02-01T06:09:44;165054.31;;;-0.32;95.44
1776;BME280;885;42.626;23.200;2023-02-01T06:12:11;165067.94;;;-0.27;95.85
1776;BME280;885;42.626;23.200;2023-02-01T06:14:37;165108.97;;;-0.12;95.34
1776;BME280;885;42.626;23.200;2023-02-01T06:17:04;165100.75;;;-0.15;94.97
1776;BME280;885;42.626;23.200;2023-02-01T06:19:32;165051.56;;;-0.33;96.10
1776;BME280;885;42.626;23.200;2023-02-01T06:21:58;165032.41;;;-0.40;96.04
1776;BME280;885;42.626;23.200;2023-02-01T06:24:27;165091.19;;;-0.18;96.18
1776;BME280;885;42.626;23.200;2023-02-01T06:26:53;165080.25;;;-0.22;94.65
1776;BME280;885;42.626;23.200;2023-02-01T06:29:20;165076.19;;;-0.24;94.69
1776;BME280;885;42.626;23.200;2023-02-01T06:31:47;165083.03;;;-0.21;95.93
1776;BME280;885;42.626;23.200;2023-02-01T06:34:14;165054.31;;;-0.32;95.13
1776;BME280;885;42.626;23.200;2023-02-01T06:36:40;165044.72;;;-0.35;95.10
1776;BME280;885;42.626;23.200;2023-02-01T06:39:10;165042.00;;;-0.36;95.87
1776;BME280;885;42.626;23.200;2023-02-01T06:41:42;165026.94;;;-0.42;96.32
1776;BME280;885;42.626;23.200;2023-02-01T06:44:09;165016.00;;;-0.46;97.16
1776;BME280;885;42.626;23.200;2023-02-01T06:46:35;165024.22;;;-0.43;96.19
1776;BME280;885;42.626;23.200;2023-02-01T06:49:02;165029.69;;;-0.41;96.71
1776;BME280;885;42.626;23.200;2023-02-01T06:51:29;165059.78;;;-0.30;95.40
1776;BME280;885;42.626;23.200;2023-02-01T06:53:56;165091.19;;;-0.18;94.75
1776;BME280;885;42.626;23.200;2023-02-01T06:56:24;165095.28;;;-0.17;94.53
1776;BME280;885;42.626;23.200;2023-02-01T06:58:52;165059.78;;;-0.30;94.69
1776;BME280;885;42.626;23.200;2023-02-01T07:01:19;165076.19;;;-0.24;94.59
1776;BME280;885;42.626;23.200;2023-02-01T07:03:47;165066.56;;;-0.27;94.61
1776;BME280;885;42.626;23.200;2023-02-01T07:06:16;165078.88;;;-0.23;93.87
1776;BME280;885;42.626;23.200;2023-02-01T07:08:44;165126.75;;;-0.05;92.33
1776;BME280;885;42.626;23.200;2023-02-01T07:11:12;165073.41;;;-0.25;94.16
1776;BME280;885;42.626;23.200;2023-02-01T07:13:40;165099.44;;;-0.15;93.53
1776;BME280;885;42.626;23.200;2023-02-01T07:16:11;165162.31;;;0.08;92.62
1776;BME280;885;42.626;23.200;2023-02-01T07:18:38;165182.81;;;0.16;92.57
1776;BME280;885;42.626;23.200;2023-02-01T07:21:05;165115.81;;;-0.09;92.82
1776;BME280;885;42.626;23.200;2023-02-01T07:23:32;165136.31;;;-0.02;92.59
1776;BME280;885;42.626;23.200;2023-02-01T07:26:00;165196.53;;;0.21;92.30
1776;BME280;885;42.626;23.200;2023-02-01T07:28:29;165195.13;;;0.20;92.05
1776;BME280;885;42.626;23.200;2023-02-01T07:31:02;165185.59;;;0.17;89.58
1776;BME280;885;42.626;23.200;2023-02-01T07:33:30;165221.09;;;0.30;88.63
1776;BME280;885;42.626;23.200;2023-02-01T07:35:57;165191.06;;;0.19;89.85
1776;BME280;885;42.626;23.200;2023-02-01T07:38:24;165225.25;;;0.31;89.06
1776;BME280;885;42.626;23.200;2023-02-01T07:40:51;165256.69;;;0.43;89.09
1776;BME280;885;42.626;23.200;2023-02-01T07:43:17;165252.59;;;0.41;87.63
1776;BME280;885;42.626;23.200;2023-02-01T07:45:52;165229.34;;;0.33;88.08
1776;BME280;885;42.626;23.200;2023-02-01T07:48:19;165242.97;;;0.38;87.68
1776;BME280;885;42.626;23.200;2023-02-01T07:50:48;165237.50;;;0.36;88.63
1776;BME280;885;42.626;23.200;2023-02-01T07:53:14;165215.63;;;0.28;88.91
1776;BME280;885;42.626;23.200;2023-02-01T07:55:41;165248.50;;;0.40;88.35
1776;BME280;885;42.626;23.200;2023-02-01T07:58:08;165245.75;;;0.39;87.79
1776;BME280;885;42.626;23.200;2023-02-01T08:00:35;165269.00;;;0.47;88.49
1776;BME280;885;42.626;23.200;2023-02-01T08:03:19;165240.28;;;0.37;87.94
1776;BME280;885;42.626;23.200;2023-02-01T08:05:47;165245.75;;;0.39;89.61
1776;BME280;885;42.626;23.200;2023-02-01T08:08:14;165212.94;;;0.27;89.03
1776;BME280;885;42.626;23.200;2023-02-01T08:10:41;165278.56;;;0.51;88.54
1776;BME280;885;42.626;23.200;2023-02-01T08:13:07;165278.56;;;0.51;88.16
1776;BME280;885;42.626;23.200;2023-02-01T08:15:35;165278.56;;;0.51;89.06
1776;BME280;885;42.626;23.200;2023-02-01T08:18:02;165293.66;;;0.56;87.75
1776;BME280;885;42.626;23.200;2023-02-01T08:20:30;165311.38;;;0.63;86.92
1776;BME280;885;42.626;23.200;2023-02-01T08:22:58;165340.13;;;0.73;86.82
1776;BME280;885;42.626;23.200;2023-02-01T08:25:25;165310.06;;;0.62;87.08
1776;BME280;885;42.626;23.200;2023-02-01T08:27:53;165318.22;;;0.65;86.31
1776;BME280;885;42.626;23.200;2023-02-01T08:30:20;165327.84;;;0.69;85.93
1776;BME280;885;42.626;23.200;2023-02-01T08:32:47;165330.56;;;0.70;87.11
1776;BME280;885;42.626;23.200;2023-02-01T08:35:14;165341.50;;;0.74;86.21
1776;BME280;885;42.626;23.200;2023-02-01T08:37:41;165355.22;;;0.79;85.76
1776;BME280;885;42.626;23.200;2023-02-01T08:40:10;165345.59;;;0.75;86.58
1776;BME280;885;42.626;23.200;2023-02-01T08:42:39;165349.72;;;0.77;86.95
1776;BME280;885;42.626;23.200;2023-02-01T08:45:19;165349.72;;;0.77;86.58
1776;BME280;885;42.626;23.200;2023-02-01T08:47:47;165352.44;;;0.78;86.22
1776;BME280;885;42.626;23.200;2023-02-01T08:50:14;165378.47;;;0.88;85.88
1776;BME280;885;42.626;23.200;2023-02-01T08:52:41;165401.75;;;0.96;84.88
1776;BME280;885;42.626;23.200;2023-02-01T08:55:10;165412.69;;;1.00;85.43
1776;BME280;885;42.626;23.200;2023-02-01T08:57:37;165415.41;;;1.01;84.69
1776;BME280;885;42.626;23.200;2023-02-01T09:00:06;165467.41;;;1.20;83.71
1776;BME280;885;42.626;23.200;2023-02-01T09:02:35;165468.78;;;1.21;83.05
1776;BME280;885;42.626;23.200;2023-02-01T09:05:02;165552.28;;;1.51;81.88
1776;BME280;885;42.626;23.200;2023-02-01T09:07:29;165481.13;;;1.25;81.83
1776;BME280;885;42.626;23.200;2023-02-01T09:09:56;165504.41;;;1.34;82.43
1776;BME280;885;42.626;23.200;2023-02-01T09:12:27;165557.75;;;1.53;82.94
1776;BME280;885;42.626;23.200;2023-02-01T09:14:54;165618.03;;;1.76;81.74
1776;BME280;885;42.626;23.200;2023-02-01T09:17:21;165630.31;;;1.80;80.84
1776;BME280;885;42.626;23.200;2023-02-01T09:19:48;165664.56;;;1.93;81.06
1776;BME280;885;42.626;23.200;2023-02-01T09:22:15;165650.91;;;1.88;80.06
1776;BME280;885;42.626;23.200;2023-02-01T09:24:42;165679.66;;;1.98;80.77
1776;BME280;885;42.626;23.200;2023-02-01T09:27:08;165705.66;;;2.08;78.52
1776;BME280;885;42.626;23.200;2023-02-01T09:29:37;165726.25;;;2.15;76.78
1776;BME280;885;42.626;23.200;2023-02-01T09:32:04;165807.09;;;2.45;75.47
1776;BME280;885;42.626;23.200;2023-02-01T09:34:31;165811.19;;;2.47;75.74
1776;BME280;885;42.626;23.200;2023-02-01T09:36:58;165650.91;;;1.88;77.74
1776;BME280;885;42.626;23.200;2023-02-01T09:39:25;165698.81;;;2.05;79.98
1776;BME280;885;42.626;23.200;2023-02-01T09:41:59;165730.34;;;2.17;77.64
1776;BME280;885;42.626;23.200;2023-02-01T09:44:42;165808.44;;;2.46;79.00
1776;BME280;885;42.626;23.200;2023-02-01T09:47:14;165886.59;;;2.74;78.64
1776;BME280;885;42.626;23.200;2023-02-01T09:49:48;165871.47;;;2.69;77.45
1776;BME280;885;42.626;23.200;2023-02-01T09:52:22;165734.44;;;2.18;78.40
1776;BME280;885;42.626;23.200;2023-02-01T09:54:53;165815.28;;;2.48;77.37
1776;BME280;885;42.626;23.200;2023-02-01T09:57:26;165861.91;;;2.65;74.48
1776;BME280;885;42.626;23.200;2023-02-01T10:00:01;165871.47;;;2.69;74.59
1776;BME280;885;42.626;23.200;2023-02-01T10:02:29;166029.16;;;3.27;73.74
1776;BME280;885;42.626;23.200;2023-02-01T10:04:58;166291.16;;;4.23;71.95
1776;BME280;885;42.626;23.200;2023-02-01T10:07:31;166536.91;;;5.13;69.66
1776;BME280;885;42.626;23.200;2023-02-01T10:10:02;166534.13;;;5.12;65.98
1776;BME280;885;42.626;23.200;2023-02-01T10:12:48;166575.34;;;5.27;68.21
1776;BME280;885;42.626;23.200;2023-02-01T10:15:39;166617.94;;;5.42;68.26
1776;BME280;885;42.626;23.200;2023-02-01T10:18:21;166605.56;;;5.38;65.39
1776;BME280;885;42.626;23.200;2023-02-01T10:20:59;166633.03;;;5.48;65.77
1776;BME280;885;42.626;23.200;2023-02-01T10:23:52;166624.78;;;5.45;66.58
1776;BME280;885;42.626;23.200;2023-02-01T10:26:25;166465.47;;;4.87;65.01
1776;BME280;885;42.626;23.200;2023-02-01T10:28:53;166421.56;;;4.70;66.63
1776;BME280;885;42.626;23.200;2023-02-01T10:31:26;166634.41;;;5.48;66.63
1776;BME280;885;42.626;23.200;2023-02-01T10:33:57;166525.91;;;5.09;66.76
1776;BME280;885;42.626;23.200;2023-02-01T10:36:28;166676.97;;;5.64;65.44
1776;BME280;885;42.626;23.200;2023-02-01T10:38:57;166583.59;;;5.30;64.78
1776;BME280;885;42.626;23.200;2023-02-01T10:41:31;166454.50;;;4.82;66.31
1776;BME280;885;42.626;23.200;2023-02-01T10:43:59;166538.22;;;5.13;67.46
1776;BME280;885;42.626;23.200;2023-02-01T10:46:31;166499.78;;;4.99;65.88
1776;BME280;885;42.626;23.200;2023-02-01T10:49:00;166535.50;;;5.12;66.74
1776;BME280;885;42.626;23.200;2023-02-01T10:51:34;166158.06;;;3.74;68.88
1776;BME280;885;42.626;23.200;2023-02-01T10:54:11;166089.47;;;3.49;70.69
1776;BME280;885;42.626;23.200;2023-02-01T10:56:44;166251.38;;;4.08;71.01
1776;BME280;885;42.626;23.200;2023-02-01T10:59:15;166270.53;;;4.15;68.64
1776;BME280;885;42.626;23.200;2023-02-01T11:01:45;166082.59;;;3.46;69.43
1776;BME280;885;42.626;23.200;2023-02-01T11:04:13;166267.84;;;4.14;69.46
1776;BME280;885;42.626;23.200;2023-02-01T11:06:42;166432.53;;;4.74;67.87
1776;BME280;885;42.626;23.200;2023-02-01T11:09:14;166399.59;;;4.62;67.73
1776;BME280;885;42.626;23.200;2023-02-01T11:11:59;166778.72;;;6.01;63.75
1776;BME280;885;42.626;23.200;2023-02-01T11:14:32;166708.59;;;5.76;63.34
1776;BME280;885;42.626;23.200;2023-02-01T11:17:16;166516.25;;;5.05;63.25
1776;BME280;885;42.626;23.200;2023-02-01T11:19:44;166449.00;;;4.80;64.89
1776;BME280;885;42.626;23.200;2023-02-01T11:22:11;166422.94;;;4.71;66.56
1776;BME280;885;42.626;23.200;2023-02-01T11:24:39;166337.84;;;4.40;67.38
1776;BME280;885;42.626;23.200;2023-02-01T11:27:15;166578.06;;;5.28;63.16
1776;BME280;885;42.626;23.200;2023-02-01T11:29:43;167249.06;;;7.73;60.75
1776;BME280;885;42.626;23.200;2023-02-01T11:32:13;167769.69;;;9.63;51.74
1776;BME280;885;42.626;23.200;2023-02-01T11:34:43;168016.41;;;10.55;48.02
1776;BME280;885;42.626;23.200;2023-02-01T11:37:17;165818.78;;;10.65;46.89
1776;BME280;885;42.626;23.200;2023-02-01T11:39:54;164394.34;;;10.87;45.83
1776;BME280;885;42.626;23.200;2023-02-01T11:42:21;163913.13;;;10.46;49.65
1776;BME280;885;42.626;23.200;2023-02-01T11:44:48;162715.66;;;11.54;43.49
1776;BME280;885;42.626;23.200;2023-02-01T11:47:25;162972.97;;;12.51;43.98
1776;BME280;885;42.626;23.200;2023-02-01T11:49:52;160882.72;;;14.47;39.08
1776;BME280;885;42.626;23.200;2023-02-01T11:52:43;154089.72;;;14.12;38.97
1776;BME280;885;42.626;23.200;2023-02-01T11:55:26;142979.25;;;11.08;42.35
1776;BME280;885;42.626;23.200;2023-02-01T11:58:06;143672.06;;;10.88;44.83
1776;BME280;885;42.626;23.200;2023-02-01T12:00:54;139455.16;;;10.18;44.54
1776;BME280;885;42.626;23.200;2023-02-01T12:03:49;140540.88;;;10.10;46.28
1776;BME280;885;42.626;23.200;2023-02-01T12:06:29;143779.88;;;11.35;44.00
1776;BME280;885;42.626;23.200;2023-02-01T12:09:24;150757.34;;;14.18;40.20
1776;BME280;885;42.626;23.200;2023-02-01T12:12:00;142556.41;;;12.45;39.98
1776;BME280;885;42.626;23.200;2023-02-01T12:14:45;138549.81;;;11.07;43.49
1776;BME280;885;42.626;23.200;2023-02-01T12:17:41;142953.22;;;12.56;41.07
1776;BME280;885;42.626;23.200;2023-02-01T12:20:43;139541.78;;;12.20;39.98
1776;BME280;885;42.626;23.200;2023-02-01T12:23:27;136415.09;;;11.43;41.38
1776;BME280;885;42.626;23.200;2023-02-01T12:26:12;122343.09;;;7.31;50.99
1776;BME280;885;42.626;23.200;2023-02-01T12:31:57;128313.56;;;7.91;53.66
1776;BME280;885;42.626;23.200;2023-02-01T12:37:38;128466.16;;;8.64;48.21
1776;BME280;885;42.626;23.200;2023-02-01T12:40:21;122640.44;;;6.97;52.95
1776;BME280;885;42.626;23.200;2023-02-01T12:42:57;129497.16;;;8.32;51.90
1776;BME280;885;42.626;23.200;2023-02-01T12:45:31;131917.03;;;9.35;47.68
1776;BME280;885;42.626;23.200;2023-02-01T12:48:07;133812.28;;;9.63;49.21
1776;BME280;885;42.626;23.200;2023-02-01T12:50:43;140539.66;;;11.71;44.65
1776;BME280;885;42.626;23.200;2023-02-01T12:53:17;141795.66;;;12.36;43.85
1776;BME280;885;42.626;23.200;2023-02-01T12:55:50;136321.91;;;11.00;44.14
1776;BME280;885;42.626;23.200;2023-02-01T12:58:22;138336.34;;;11.77;42.15
1776;BME280;885;42.626;23.200;2023-02-01T13:00:54;129698.63;;;9.28;47.60
1776;BME280;885;42.626;23.200;2023-02-01T13:03:32;134303.38;;;10.19;47.81
1776;BME280;885;42.626;23.200;2023-02-01T13:06:03;143044.00;;;12.96;42.11
1776;BME280;885;42.626;23.200;2023-02-01T13:08:40;141621.63;;;13.21;39.56
1776;BME280;885;42.626;23.200;2023-02-01T13:11:11;139683.72;;;12.83;39.72
1776;BME280;885;42.626;23.200;2023-02-01T13:13:46;147700.72;;;15.39;37.85
1776;BME280;885;42.626;23.200;2023-02-01T13:16:17;139636.78;;;14.26;35.70
1776;BME280;885;42.626;23.200;2023-02-01T13:18:50;132488.91;;;12.03;40.17
1776;BME280;885;42.626;23.200;2023-02-01T13:21:24;128165.88;;;10.74;42.89
1776;BME280;885;42.626;23.200;2023-02-01T13:23:53;133267.81;;;12.22;39.85
1776;BME280;885;42.626;23.200;2023-02-01T13:26:20;131353.72;;;11.89;40.47
1776;BME280;885;42.626;23.200;2023-02-01T13:28:50;139198.13;;;13.96;38.26
1776;BME280;885;42.626;23.200;2023-02-01T13:31:45;139661.78;;;14.38;37.68
1776;BME280;885;42.626;23.200;2023-02-01T13:34:38;142979.25;;;15.89;34.99
1776;BME280;885;42.626;23.200;2023-02-01T13:37:21;137550.72;;;14.89;35.19
1776;BME280;885;42.626;23.200;2023-02-01T13:40:02;136764.31;;;14.69;35.98
1776;BME280;885;42.626;23.200;2023-02-01T13:42:34;135616.78;;;14.53;36.33
1776;BME280;885;42.626;23.200;2023-02-01T13:45:04;130160.84;;;13.24;37.80
1776;BME280;885;42.626;23.200;2023-02-01T13:47:33;124727.94;;;11.92;39.88